sensor_id;sensor_type;location;lat;lon;timestamp;P1;durP1;ratioP1;P2;durP2;ratioP2
51883;SDS011;37915;53.254;6.598;2023-06-19T00:02:02;13.75;;;7.90;;
51883;SDS011;37915;53.254;6.598;2023-06-19T00:04:28;11.00;;;7.70;;
51883;SDS011;37915;53.254;6.598;2023-06-19T00:06:54;9.55;;;7.78;;
51883;SDS011;37915;53.254;6.598;2023-06-19T00:09:20;9.82;;;6.88;;
51883;SDS011;37915;53.254;6.598;2023-06-19T00:11:45;8.75;;;7.00;;
51883;SDS011;37915;53.254;6.598;2023-06-19T00:14:11;8.85;;;7.30;;
51883;SDS011;37915;53.254;6.598;2023-06-19T00:16:37;10.02;;;7.05;;
51883;SDS011;37915;53.254;6.598;2023-06-19T00:19:03;10.18;;;7.05;;
51883;SDS011;37915;53.254;6.598;2023-06-19T00:21:29;10.43;;;6.93;;
51883;SDS011;37915;53.254;6.598;2023-06-19T00:23:55;9.25;;;6.47;;
51883;SDS011;37915;53.254;6.598;2023-06-19T00:26:21;9.40;;;6.53;;
51883;SDS011;37915;53.254;6.598;2023-06-19T00:28:48;9.65;;;6.43;;
51883;SDS011;37915;53.254;6.598;2023-06-19T00:31:17;8.50;;;6.60;;
51883;SDS011;37915;53.254;6.598;2023-06-19T00:33:44;12.52;;;7.10;;
51883;SDS011;37915;53.254;6.598;2023-06-19T00:36:14;8.05;;;6.32;;
51883;SDS011;37915;53.254;6.598;2023-06-19T00:38:41;10.00;;;6.30;;
51883;SDS011;37915;53.254;6.598;2023-06-19T00:41:07;9.15;;;6.93;;
51883;SDS011;37915;53.254;6.598;2023-06-19T00:43:33;9.80;;;6.40;;
51883;SDS011;37915;53.254;6.598;2023-06-19T00:46:00;9.90;;;5.90;;
51883;SDS011;37915;53.254;6.598;2023-06-19T00:48:30;10.45;;;6.90;;
51883;SDS011;37915;53.254;6.598;2023-06-19T00:50:57;8.57;;;6.15;;
51883;SDS011;37915;53.254;6.598;2023-06-19T00:53:23;8.07;;;6.30;;
51883;SDS011;37915;53.254;6.598;2023-06-19T00:55:50;7.47;;;6.47;;
51883;SDS011;37915;53.254;6.598;2023-06-19T00:58:17;10.35;;;6.07;;
51883;SDS011;37915;53.254;6.598;2023-06-19T01:00:44;9.57;;;6.03;;
51883;SDS011;37915;53.254;6.598;2023-06-19T01:03:09;8.38;;;6.38;;
51883;SDS011;37915;53.254;6.598;2023-06-19T01:05:35;7.90;;;6.20;;
51883;SDS011;37915;53.254;6.598;2023-06-19T01:08:12;8.25;;;6.40;;
51883;SDS011;37915;53.254;6.598;2023-06-19T01:11:02;9.75;;;6.30;;
51883;SDS011;37915;53.254;6.598;2023-06-19T01:16:10;9.02;;;6.53;;
51883;SDS011;37915;53.254;6.598;2023-06-19T01:18:37;7.47;;;6.15;;
51883;SDS011;37915;53.254;6.598;2023-06-19T01:21:13;8.52;;;6.10;;
51883;SDS011;37915;53.254;6.598;2023-06-19T01:23:40;8.63;;;6.38;;
51883;SDS011;37915;53.254;6.598;2023-06-19T01:26:09;8.00;;;6.20;;
51883;SDS011;37915;53.254;6.598;2023-06-19T01:28:36;9.77;;;5.95;;
51883;SDS011;37915;53.254;6.598;2023-06-19T01:31:06;8.07;;;6.28;;
51883;SDS011;37915;53.254;6.598;2023-06-19T01:33:40;10.38;;;6.45;;
51883;SDS011;37915;53.254;6.598;2023-06-19T01:36:08;10.90;;;6.20;;
51883;SDS011;37915;53.254;6.598;2023-06-19T01:38:35;7.65;;;5.82;;
51883;SDS011;37915;53.254;6.598;2023-06-19T01:41:02;8.27;;;6.05;;
51883;SDS011;37915;53.254;6.598;2023-06-19T01:43:30;8.85;;;6.68;;
51883;SDS011;37915;53.254;6.598;2023-06-19T01:45:57;10.55;;;5.88;;
51883;SDS011;37915;53.254;6.598;2023-06-19T01:48:23;8.63;;;6.72;;
51883;SDS011;37915;53.254;6.598;2023-06-19T01:50:50;8.32;;;5.93;;
51883;SDS011;37915;53.254;6.598;2023-06-19T01:53:16;8.32;;;5.78;;
51883;SDS011;37915;53.254;6.598;2023-06-19T01:55:42;8.10;;;6.20;;
51883;SDS011;37915;53.254;6.598;2023-06-19T01:58:08;10.52;;;5.88;;
51883;SDS011;37915;53.254;6.598;2023-06-19T02:00:34;8.93;;;6.13;;
51883;SDS011;37915;53.254;6.598;2023-06-19T02:03:03;8.07;;;5.40;;
51883;SDS011;37915;53.254;6.598;2023-06-19T02:05:30;10.70;;;6.68;;
51883;SDS011;37915;53.254;6.598;2023-06-19T02:07:56;8.20;;;6.20;;
51883;SDS011;37915;53.254;6.598;2023-06-19T02:10:22;8.18;;;5.90;;
51883;SDS011;37915;53.254;6.598;2023-06-19T02:12:48;10.15;;;6.65;;
51883;SDS011;37915;53.254;6.598;2023-06-19T02:15:14;9.20;;;6.20;;
51883;SDS011;37915;53.254;6.598;2023-06-19T02:17:40;8.20;;;6.28;;
51883;SDS011;37915;53.254;6.598;2023-06-19T02:20:07;8.85;;;6.45;;
51883;SDS011;37915;53.254;6.598;2023-06-19T02:22:37;7.18;;;6.15;;
51883;SDS011;37915;53.254;6.598;2023-06-19T02:25:04;8.00;;;6.25;;
51883;SDS011;37915;53.254;6.598;2023-06-19T02:27:30;7.72;;;6.18;;
51883;SDS011;37915;53.254;6.598;2023-06-19T02:29:56;8.68;;;6.82;;
51883;SDS011;37915;53.254;6.598;2023-06-19T02:32:21;11.15;;;6.43;;
51883;SDS011;37915;53.254;6.598;2023-06-19T02:34:47;8.13;;;5.90;;
51883;SDS011;37915;53.254;6.598;2023-06-19T02:37:13;7.05;;;5.90;;
51883;SDS011;37915;53.254;6.598;2023-06-19T02:39:38;10.07;;;6.85;;
51883;SDS011;37915;53.254;6.598;2023-06-19T02:42:04;7.60;;;6.13;;
51883;SDS011;37915;53.254;6.598;2023-06-19T02:44:31;10.45;;;6.78;;
51883;SDS011;37915;53.254;6.598;2023-06-19T02:46:56;8.25;;;6.45;;
51883;SDS011;37915;53.254;6.598;2023-06-19T02:49:22;8.27;;;6.70;;
51883;SDS011;37915;53.254;6.598;2023-06-19T02:51:48;8.07;;;6.10;;
51883;SDS011;37915;53.254;6.598;2023-06-19T02:54:14;8.88;;;6.28;;
51883;SDS011;37915;53.254;6.598;2023-06-19T02:56:40;10.15;;;6.93;;
51883;SDS011;37915;53.254;6.598;2023-06-19T02:59:05;9.50;;;6.22;;
51883;SDS011;37915;53.254;6.598;2023-06-19T03:01:31;8.45;;;6.75;;
51883;SDS011;37915;53.254;6.598;2023-06-19T03:03:57;9.52;;;6.50;;
51883;SDS011;37915;53.254;6.598;2023-06-19T03:06:22;9.63;;;6.00;;
51883;SDS011;37915;53.254;6.598;2023-06-19T03:08:48;10.48;;;7.05;;
51883;SDS011;37915;53.254;6.598;2023-06-19T03:11:14;10.52;;;6.32;;
51883;SDS011;37915;53.254;6.598;2023-06-19T03:13:50;9.10;;;6.03;;
51883;SDS011;37915;53.254;6.598;2023-06-19T03:16:17;8.52;;;6.72;;
51883;SDS011;37915;53.254;6.598;2023-06-19T03:18:43;8.60;;;6.88;;
51883;SDS011;37915;53.254;6.598;2023-06-19T03:21:16;8.18;;;6.20;;
51883;SDS011;37915;53.254;6.598;2023-06-19T03:23:44;8.85;;;6.53;;
51883;SDS011;37915;53.254;6.598;2023-06-19T03:26:10;8.32;;;6.40;;
51883;SDS011;37915;53.254;6.598;2023-06-19T03:28:37;10.48;;;6.78;;
51883;SDS011;37915;53.254;6.598;2023-06-19T03:31:03;10.40;;;6.18;;
51883;SDS011;37915;53.254;6.598;2023-06-19T03:33:29;10.38;;;6.90;;
51883;SDS011;37915;53.254;6.598;2023-06-19T03:35:55;9.88;;;6.40;;
51883;SDS011;37915;53.254;6.598;2023-06-19T03:38:22;7.43;;;6.15;;
51883;SDS011;37915;53.254;6.598;2023-06-19T03:40:48;9.50;;;7.00;;
51883;SDS011;37915;53.254;6.598;2023-06-19T03:43:14;9.20;;;6.63;;
51883;SDS011;37915;53.254;6.598;2023-06-19T03:45:40;9.40;;;6.63;;
51883;SDS011;37915;53.254;6.598;2023-06-19T03:48:06;9.27;;;6.47;;
51883;SDS011;37915;53.254;6.598;2023-06-19T03:50:32;9.15;;;6.78;;
51883;SDS011;37915;53.254;6.598;2023-06-19T03:52:58;7.88;;;5.97;;
51883;SDS011;37915;53.254;6.598;2023-06-19T03:55:24;8.68;;;6.95;;
51883;SDS011;37915;53.254;6.598;2023-06-19T03:57:50;8.10;;;6.63;;
51883;SDS011;37915;53.254;6.598;2023-06-19T04:00:17;8.50;;;6.40;;
51883;SDS011;37915;53.254;6.598;2023-06-19T04:02:44;8.80;;;5.97;;
51883;SDS011;37915;53.254;6.598;2023-06-19T04:05:11;9.55;;;6.85;;
51883;SDS011;37915;53.254;6.598;2023-06-19T04:07:37;9.38;;;6.53;;
51883;SDS011;37915;53.254;6.598;2023-06-19T04:10:03;9.02;;;6.85;;
51883;SDS011;37915;53.254;6.598;2023-06-19T04:12:30;7.75;;;6.28;;
51883;SDS011;37915;53.254;6.598;2023-06-19T04:14:56;9.52;;;6.47;;
51883;SDS011;37915;53.254;6.598;2023-06-19T04:17:22;8.25;;;6.03;;
51883;SDS011;37915;53.254;6.598;2023-06-19T04:19:48;8.40;;;5.78;;
51883;SDS011;37915;53.254;6.598;2023-06-19T04:22:14;8.65;;;6.53;;
51883;SDS011;37915;53.254;6.598;2023-06-19T04:24:40;8.27;;;6.07;;
51883;SDS011;37915;53.254;6.598;2023-06-19T04:27:06;8.95;;;6.32;;
51883;SDS011;37915;53.254;6.598;2023-06-19T04:29:35;8.73;;;6.25;;
51883;SDS011;37915;53.254;6.598;2023-06-19T04:32:01;9.48;;;5.55;;
51883;SDS011;37915;53.254;6.598;2023-06-19T04:34:36;7.88;;;6.07;;
51883;SDS011;37915;53.254;6.598;2023-06-19T04:37:02;10.38;;;6.00;;
51883;SDS011;37915;53.254;6.598;2023-06-19T04:39:28;7.53;;;5.82;;
51883;SDS011;37915;53.254;6.598;2023-06-19T04:41:54;11.00;;;6.75;;
51883;SDS011;37915;53.254;6.598;2023-06-19T04:44:20;7.88;;;5.80;;
51883;SDS011;37915;53.254;6.598;2023-06-19T04:46:47;8.00;;;5.85;;
51883;SDS011;37915;53.254;6.598;2023-06-19T04:49:13;8.45;;;5.80;;
51883;SDS011;37915;53.254;6.598;2023-06-19T04:51:40;7.82;;;5.57;;
51883;SDS011;37915;53.254;6.598;2023-06-19T04:54:06;7.70;;;5.25;;
51883;SDS011;37915;53.254;6.598;2023-06-19T04:56:33;6.70;;;4.80;;
51883;SDS011;37915;53.254;6.598;2023-06-19T04:58:59;6.07;;;4.68;;
51883;SDS011;37915;53.254;6.598;2023-06-19T05:01:26;7.15;;;4.82;;
51883;SDS011;37915;53.254;6.598;2023-06-19T05:03:54;8.32;;;4.35;;
51883;SDS011;37915;53.254;6.598;2023-06-19T05:06:24;5.90;;;4.35;;
51883;SDS011;37915;53.254;6.598;2023-06-19T05:08:50;5.95;;;4.15;;
51883;SDS011;37915;53.254;6.598;2023-06-19T05:11:17;6.32;;;4.22;;
51883;SDS011;37915;53.254;6.598;2023-06-19T05:13:43;6.88;;;3.75;;
51883;SDS011;37915;53.254;6.598;2023-06-19T05:16:09;7.60;;;4.25;;
51883;SDS011;37915;53.254;6.598;2023-06-19T05:18:35;6.25;;;4.25;;
51883;SDS011;37915;53.254;6.598;2023-06-19T05:21:02;5.38;;;3.63;;
51883;SDS011;37915;53.254;6.598;2023-06-19T05:23:28;5.88;;;4.20;;
51883;SDS011;37915;53.254;6.598;2023-06-19T05:25:54;7.05;;;4.22;;
51883;SDS011;37915;53.254;6.598;2023-06-19T05:28:19;6.03;;;4.22;;
51883;SDS011;37915;53.254;6.598;2023-06-19T05:30:45;6.45;;;4.30;;
51883;SDS011;37915;53.254;6.598;2023-06-19T05:33:11;5.93;;;4.05;;
51883;SDS011;37915;53.254;6.598;2023-06-19T05:35:40;7.50;;;4.18;;
51883;SDS011;37915;53.254;6.598;2023-06-19T05:38:07;5.40;;;3.85;;
51883;SDS011;37915;53.254;6.598;2023-06-19T05:40:32;6.70;;;4.07;;
51883;SDS011;37915;53.254;6.598;2023-06-19T05:42:58;6.15;;;4.20;;
51883;SDS011;37915;53.254;6.598;2023-06-19T05:45:24;6.38;;;3.97;;
51883;SDS011;37915;53.254;6.598;2023-06-19T05:47:49;7.45;;;4.25;;
51883;SDS011;37915;53.254;6.598;2023-06-19T05:50:15;7.75;;;4.53;;
51883;SDS011;37915;53.254;6.598;2023-06-19T05:52:41;5.55;;;3.97;;
51883;SDS011;37915;53.254;6.598;2023-06-19T05:55:08;6.57;;;4.43;;
51883;SDS011;37915;53.254;6.598;2023-06-19T05:57:35;7.90;;;4.72;;
51883;SDS011;37915;53.254;6.598;2023-06-19T06:00:00;7.55;;;4.35;;
51883;SDS011;37915;53.254;6.598;2023-06-19T06:02:26;7.53;;;4.63;;
51883;SDS011;37915;53.254;6.598;2023-06-19T06:04:53;6.22;;;4.63;;
51883;SDS011;37915;53.254;6.598;2023-06-19T06:07:19;8.23;;;5.25;;
51883;SDS011;37915;53.254;6.598;2023-06-19T06:09:45;8.15;;;5.45;;
51883;SDS011;37915;53.254;6.598;2023-06-19T06:12:10;10.15;;;5.60;;
51883;SDS011;37915;53.254;6.598;2023-06-19T06:14:36;10.68;;;6.47;;
51883;SDS011;37915;53.254;6.598;2023-06-19T06:17:02;9.82;;;5.97;;
51883;SDS011;37915;53.254;6.598;2023-06-19T06:19:30;7.90;;;5.63;;
51883;SDS011;37915;53.254;6.598;2023-06-19T06:21:55;11.30;;;6.13;;
51883;SDS011;37915;53.254;6.598;2023-06-19T06:24:21;8.15;;;6.03;;
51883;SDS011;37915;53.254;6.598;2023-06-19T06:26:47;7.85;;;5.50;;
51883;SDS011;37915;53.254;6.598;2023-06-19T06:29:12;10.07;;;7.07;;
51883;SDS011;37915;53.254;6.598;2023-06-19T06:31:38;9.90;;;6.47;;
51883;SDS011;37915;53.254;6.598;2023-06-19T06:34:06;9.80;;;6.78;;
51883;SDS011;37915;53.254;6.598;2023-06-19T06:36:32;12.90;;;6.15;;
51883;SDS011;37915;53.254;6.598;2023-06-19T06:38:58;10.30;;;6.45;;
51883;SDS011;37915;53.254;6.598;2023-06-19T06:41:23;9.45;;;6.43;;
51883;SDS011;37915;53.254;6.598;2023-06-19T06:43:49;10.25;;;7.30;;
51883;SDS011;37915;53.254;6.598;2023-06-19T06:46:15;10.45;;;7.00;;
51883;SDS011;37915;53.254;6.598;2023-06-19T06:48:40;10.40;;;6.32;;
51883;SDS011;37915;53.254;6.598;2023-06-19T06:51:06;8.85;;;6.70;;
51883;SDS011;37915;53.254;6.598;2023-06-19T06:53:32;10.13;;;6.25;;
51883;SDS011;37915;53.254;6.598;2023-06-19T06:55:58;7.32;;;5.38;;
51883;SDS011;37915;53.254;6.598;2023-06-19T06:58:28;8.38;;;6.63;;
51883;SDS011;37915;53.254;6.598;2023-06-19T07:00:55;10.13;;;6.28;;
51883;SDS011;37915;53.254;6.598;2023-06-19T07:03:21;7.78;;;5.80;;
51883;SDS011;37915;53.254;6.598;2023-06-19T07:05:49;5.97;;;5.18;;
51883;SDS011;37915;53.254;6.598;2023-06-19T07:08:15;7.80;;;5.45;;
51883;SDS011;37915;53.254;6.598;2023-06-19T07:10:41;7.88;;;5.57;;
51883;SDS011;37915;53.254;6.598;2023-06-19T07:13:07;7.95;;;5.88;;
51883;SDS011;37915;53.254;6.598;2023-06-19T07:15:32;9.73;;;5.82;;
51883;SDS011;37915;53.254;6.598;2023-06-19T07:17:58;8.95;;;6.88;;
51883;SDS011;37915;53.254;6.598;2023-06-19T07:20:24;8.63;;;6.63;;
51883;SDS011;37915;53.254;6.598;2023-06-19T07:22:52;9.65;;;7.38;;
51883;SDS011;37915;53.254;6.598;2023-06-19T07:25:19;10.30;;;7.82;;
51883;SDS011;37915;53.254;6.598;2023-06-19T07:27:45;11.60;;;8.30;;
51883;SDS011;37915;53.254;6.598;2023-06-19T07:30:11;11.68;;;8.30;;
51883;SDS011;37915;53.254;6.598;2023-06-19T07:32:37;12.77;;;8.77;;
51883;SDS011;37915;53.254;6.598;2023-06-19T07:35:03;10.77;;;7.53;;
51883;SDS011;37915;53.254;6.598;2023-06-19T07:37:30;12.70;;;9.48;;
51883;SDS011;37915;53.254;6.598;2023-06-19T07:39:55;13.55;;;10.18;;
51883;SDS011;37915;53.254;6.598;2023-06-19T07:42:21;15.18;;;11.82;;
51883;SDS011;37915;53.254;6.598;2023-06-19T07:44:47;16.33;;;12.25;;
51883;SDS011;37915;53.254;6.598;2023-06-19T07:47:15;16.10;;;12.25;;
51883;SDS011;37915;53.254;6.598;2023-06-19T07:49:41;16.30;;;12.10;;
51883;SDS011;37915;53.254;6.598;2023-06-19T07:52:07;21.05;;;13.52;;
51883;SDS011;37915;53.254;6.598;2023-06-19T07:54:34;18.90;;;13.48;;
51883;SDS011;37915;53.254;6.598;2023-06-19T07:57:01;18.08;;;13.52;;
51883;SDS011;37915;53.254;6.598;2023-06-19T07:59:26;21.20;;;14.02;;
51883;SDS011;37915;53.254;6.598;2023-06-19T08:01:52;21.20;;;13.65;;
51883;SDS011;37915;53.254;6.598;2023-06-19T08:04:18;20.40;;;14.07;;
51883;SDS011;37915;53.254;6.598;2023-06-19T08:06:43;17.63;;;12.73;;
51883;SDS011;37915;53.254;6.598;2023-06-19T08:09:09;19.83;;;13.05;;
51883;SDS011;37915;53.254;6.598;2023-06-19T08:11:35;18.25;;;12.88;;
51883;SDS011;37915;53.254;6.598;2023-06-19T08:14:02;16.83;;;12.55;;
51883;SDS011;37915;53.254;6.598;2023-06-19T08:16:28;18.40;;;13.27;;
51883;SDS011;37915;53.254;6.598;2023-06-19T08:18:53;15.50;;;11.60;;
51883;SDS011;37915;53.254;6.598;2023-06-19T08:21:19;17.30;;;11.57;;
51883;SDS011;37915;53.254;6.598;2023-06-19T08:23:46;16.92;;;11.43;;
51883;SDS011;37915;53.254;6.598;2023-06-19T08:26:13;14.65;;;9.90;;
51883;SDS011;37915;53.254;6.598;2023-06-19T08:28:46;15.35;;;9.57;;
51883;SDS011;37915;53.254;6.598;2023-06-19T08:31:12;21.65;;;10.25;;
51883;SDS011;37915;53.254;6.598;2023-06-19T08:33:38;12.38;;;8.82;;
51883;SDS011;37915;53.254;6.598;2023-06-19T08:36:07;12.45;;;8.13;;
51883;SDS011;37915;53.254;6.598;2023-06-19T08:38:36;12.75;;;8.30;;
51883;SDS011;37915;53.254;6.598;2023-06-19T08:41:05;11.55;;;8.70;;
51883;SDS011;37915;53.254;6.598;2023-06-19T08:43:47;10.88;;;7.40;;
51883;SDS011;37915;53.254;6.598;2023-06-19T08:46:29;9.05;;;7.20;;
51883;SDS011;37915;53.254;6.598;2023-06-19T08:48:55;11.57;;;7.28;;
51883;SDS011;37915;53.254;6.598;2023-06-19T08:51:22;9.82;;;7.45;;
51883;SDS011;37915;53.254;6.598;2023-06-19T08:53:54;10.80;;;6.93;;
51883;SDS011;37915;53.254;6.598;2023-06-19T08:56:21;9.85;;;6.78;;
51883;SDS011;37915;53.254;6.598;2023-06-19T08:58:47;17.67;;;5.88;;
51883;SDS011;37915;53.254;6.598;2023-06-19T09:01:19;12.45;;;6.00;;
51883;SDS011;37915;53.254;6.598;2023-06-19T09:03:47;8.43;;;5.90;;
51883;SDS011;37915;53.254;6.598;2023-06-19T09:06:17;8.13;;;5.00;;
51883;SDS011;37915;53.254;6.598;2023-06-19T09:08:59;9.15;;;5.70;;
51883;SDS011;37915;53.254;6.598;2023-06-19T09:11:25;8.63;;;5.35;;
51883;SDS011;37915;53.254;6.598;2023-06-19T09:14:03;14.23;;;5.00;;
51883;SDS011;37915;53.254;6.598;2023-06-19T09:16:41;9.75;;;5.28;;
51883;SDS011;37915;53.254;6.598;2023-06-19T09:19:19;6.93;;;4.82;;
51883;SDS011;37915;53.254;6.598;2023-06-19T09:21:45;7.85;;;5.25;;
51883;SDS011;37915;53.254;6.598;2023-06-19T09:24:11;6.50;;;4.43;;
51883;SDS011;37915;53.254;6.598;2023-06-19T09:26:37;7.68;;;4.40;;
51883;SDS011;37915;53.254;6.598;2023-06-19T09:29:09;9.43;;;4.78;;
51883;SDS011;37915;53.254;6.598;2023-06-19T09:31:36;9.63;;;4.90;;
51883;SDS011;37915;53.254;6.598;2023-06-19T09:34:03;8.65;;;4.57;;
51883;SDS011;37915;53.254;6.598;2023-06-19T09:36:30;7.78;;;5.28;;
51883;SDS011;37915;53.254;6.598;2023-06-19T09:38:57;7.40;;;4.50;;
51883;SDS011;37915;53.254;6.598;2023-06-19T09:41:25;7.70;;;4.65;;
51883;SDS011;37915;53.254;6.598;2023-06-19T09:43:51;12.18;;;4.93;;
51883;SDS011;37915;53.254;6.598;2023-06-19T09:46:26;9.90;;;5.78;;
51883;SDS011;37915;53.254;6.598;2023-06-19T09:48:54;7.60;;;5.15;;
51883;SDS011;37915;53.254;6.598;2023-06-19T09:51:29;9.18;;;5.22;;
51883;SDS011;37915;53.254;6.598;2023-06-19T09:53:57;9.57;;;6.18;;
51883;SDS011;37915;53.254;6.598;2023-06-19T09:56:26;8.80;;;5.32;;
51883;SDS011;37915;53.254;6.598;2023-06-19T09:58:53;10.40;;;5.43;;
51883;SDS011;37915;53.254;6.598;2023-06-19T10:01:24;8.18;;;5.18;;
51883;SDS011;37915;53.254;6.598;2023-06-19T10:04:02;9.45;;;6.15;;
51883;SDS011;37915;53.254;6.598;2023-06-19T10:06:55;10.75;;;6.32;;
51883;SDS011;37915;53.254;6.598;2023-06-19T10:09:22;11.00;;;6.45;;
51883;SDS011;37915;53.254;6.598;2023-06-19T10:11:54;10.60;;;6.88;;
51883;SDS011;37915;53.254;6.598;2023-06-19T10:15:18;9.77;;;7.25;;
51883;SDS011;37915;53.254;6.598;2023-06-19T10:18:12;13.68;;;6.32;;
51883;SDS011;37915;53.254;6.598;2023-06-19T10:20:42;9.02;;;6.15;;
51883;SDS011;37915;53.254;6.598;2023-06-19T10:23:16;11.60;;;6.55;;
51883;SDS011;37915;53.254;6.598;2023-06-19T10:26:05;12.75;;;7.60;;
51883;SDS011;37915;53.254;6.598;2023-06-19T10:28:32;9.88;;;7.20;;
51883;SDS011;37915;53.254;6.598;2023-06-19T10:31:04;12.70;;;7.95;;
51883;SDS011;37915;53.254;6.598;2023-06-19T10:33:32;10.38;;;7.32;;
51883;SDS011;37915;53.254;6.598;2023-06-19T10:36:20;12.05;;;8.10;;
51883;SDS011;37915;53.254;6.598;2023-06-19T10:38:51;11.20;;;8.23;;
51883;SDS011;37915;53.254;6.598;2023-06-19T10:41:20;15.57;;;8.45;;
51883;SDS011;37915;53.254;6.598;2023-06-19T10:43:58;11.13;;;8.13;;
51883;SDS011;37915;53.254;6.598;2023-06-19T10:46:32;10.48;;;7.93;;
51883;SDS011;37915;53.254;6.598;2023-06-19T10:49:00;14.87;;;8.70;;
51883;SDS011;37915;53.254;6.598;2023-06-19T10:51:39;11.48;;;7.97;;
51883;SDS011;37915;53.254;6.598;2023-06-19T10:54:09;13.57;;;9.60;;
51883;SDS011;37915;53.254;6.598;2023-06-19T10:56:34;14.52;;;8.93;;
51883;SDS011;37915;53.254;6.598;2023-06-19T11:01:38;11.82;;;8.38;;
51883;SDS011;37915;53.254;6.598;2023-06-19T11:04:09;13.57;;;7.35;;
51883;SDS011;37915;53.254;6.598;2023-06-19T11:06:36;11.93;;;8.00;;
51883;SDS011;37915;53.254;6.598;2023-06-19T11:09:04;11.55;;;7.80;;
51883;SDS011;37915;53.254;6.598;2023-06-19T11:11:34;11.05;;;7.90;;
51883;SDS011;37915;53.254;6.598;2023-06-19T11:14:05;12.90;;;7.85;;
51883;SDS011;37915;53.254;6.598;2023-06-19T11:16:31;11.95;;;8.85;;
51883;SDS011;37915;53.254;6.598;2023-06-19T11:18:58;11.50;;;8.20;;
51883;SDS011;37915;53.254;6.598;2023-06-19T11:21:32;13.75;;;7.88;;
51883;SDS011;37915;53.254;6.598;2023-06-19T11:24:03;11.73;;;8.32;;
51883;SDS011;37915;53.254;6.598;2023-06-19T11:26:34;10.80;;;8.68;;
51883;SDS011;37915;53.254;6.598;2023-06-19T11:29:12;13.23;;;8.57;;
51883;SDS011;37915;53.254;6.598;2023-06-19T11:31:43;14.20;;;9.32;;
51883;SDS011;37915;53.254;6.598;2023-06-19T11:34:09;13.57;;;9.10;;
51883;SDS011;37915;53.254;6.598;2023-06-19T11:36:38;11.93;;;8.80;;
51883;SDS011;37915;53.254;6.598;2023-06-19T11:39:14;15.02;;;8.75;;
51883;SDS011;37915;53.254;6.598;2023-06-19T11:41:43;11.43;;;7.70;;
51883;SDS011;37915;53.254;6.598;2023-06-19T11:44:09;12.10;;;8.25;;
51883;SDS011;37915;53.254;6.598;2023-06-19T11:46:35;12.45;;;7.72;;
51883;SDS011;37915;53.254;6.598;2023-06-19T11:51:44;12.40;;;8.75;;
51883;SDS011;37915;53.254;6.598;2023-06-19T11:54:12;11.88;;;8.90;;
51883;SDS011;37915;53.254;6.598;2023-06-19T11:56:40;12.75;;;8.85;;
51883;SDS011;37915;53.254;6.598;2023-06-19T11:59:06;13.20;;;8.07;;
51883;SDS011;37915;53.254;6.598;2023-06-19T12:01:33;12.13;;;8.27;;
51883;SDS011;37915;53.254;6.598;2023-06-19T12:04:00;13.23;;;8.82;;
51883;SDS011;37915;53.254;6.598;2023-06-19T12:06:27;11.13;;;8.43;;
51883;SDS011;37915;53.254;6.598;2023-06-19T12:08:53;13.43;;;9.82;;
51883;SDS011;37915;53.254;6.598;2023-06-19T12:11:19;12.27;;;9.48;;
51883;SDS011;37915;53.254;6.598;2023-06-19T12:13:45;15.18;;;10.07;;
51883;SDS011;37915;53.254;6.598;2023-06-19T12:16:11;14.40;;;9.73;;
51883;SDS011;37915;53.254;6.598;2023-06-19T12:18:37;12.48;;;8.88;;
51883;SDS011;37915;53.254;6.598;2023-06-19T12:21:03;16.95;;;10.82;;
51883;SDS011;37915;53.254;6.598;2023-06-19T12:23:29;14.15;;;8.73;;
51883;SDS011;37915;53.254;6.598;2023-06-19T12:25:55;14.90;;;10.10;;
51883;SDS011;37915;53.254;6.598;2023-06-19T12:28:21;13.52;;;9.13;;
51883;SDS011;37915;53.254;6.598;2023-06-19T12:30:47;14.95;;;10.50;;
51883;SDS011;37915;53.254;6.598;2023-06-19T12:33:16;14.15;;;9.63;;
51883;SDS011;37915;53.254;6.598;2023-06-19T12:35:45;16.00;;;10.32;;
51883;SDS011;37915;53.254;6.598;2023-06-19T12:38:11;13.32;;;9.07;;
51883;SDS011;37915;53.254;6.598;2023-06-19T12:40:37;19.90;;;10.05;;
51883;SDS011;37915;53.254;6.598;2023-06-19T12:43:03;13.32;;;9.70;;
51883;SDS011;37915;53.254;6.598;2023-06-19T12:45:29;12.43;;;8.40;;
51883;SDS011;37915;53.254;6.598;2023-06-19T12:47:55;13.50;;;9.15;;
51883;SDS011;37915;53.254;6.598;2023-06-19T12:50:21;12.43;;;8.05;;
51883;SDS011;37915;53.254;6.598;2023-06-19T12:52:47;12.02;;;8.98;;
51883;SDS011;37915;53.254;6.598;2023-06-19T12:55:13;14.10;;;10.10;;
51883;SDS011;37915;53.254;6.598;2023-06-19T12:57:39;13.15;;;9.02;;
51883;SDS011;37915;53.254;6.598;2023-06-19T13:00:07;10.95;;;8.18;;
51883;SDS011;37915;53.254;6.598;2023-06-19T13:02:35;12.60;;;8.02;;
51883;SDS011;37915;53.254;6.598;2023-06-19T13:05:01;13.20;;;9.25;;
51883;SDS011;37915;53.254;6.598;2023-06-19T13:07:26;12.18;;;8.68;;
51883;SDS011;37915;53.254;6.598;2023-06-19T13:09:52;12.00;;;9.48;;
51883;SDS011;37915;53.254;6.598;2023-06-19T13:12:18;11.10;;;8.75;;
51883;SDS011;37915;53.254;6.598;2023-06-19T13:14:44;15.25;;;8.65;;
51883;SDS011;37915;53.254;6.598;2023-06-19T13:17:09;12.43;;;9.13;;
51883;SDS011;37915;53.254;6.598;2023-06-19T13:19:35;11.38;;;8.30;;
51883;SDS011;37915;53.254;6.598;2023-06-19T13:22:01;13.48;;;9.50;;
51883;SDS011;37915;53.254;6.598;2023-06-19T13:24:27;12.32;;;9.52;;
51883;SDS011;37915;53.254;6.598;2023-06-19T13:26:52;12.35;;;9.40;;
51883;SDS011;37915;53.254;6.598;2023-06-19T13:29:19;12.23;;;8.68;;
51883;SDS011;37915;53.254;6.598;2023-06-19T13:31:45;12.43;;;8.38;;
51883;SDS011;37915;53.254;6.598;2023-06-19T13:34:11;12.25;;;7.40;;
51883;SDS011;37915;53.254;6.598;2023-06-19T13:36:37;9.63;;;6.80;;
51883;SDS011;37915;53.254;6.598;2023-06-19T13:39:03;11.90;;;6.18;;
51883;SDS011;37915;53.254;6.598;2023-06-19T13:41:29;7.28;;;5.43;;
51883;SDS011;37915;53.254;6.598;2023-06-19T13:43:59;12.10;;;6.45;;
51883;SDS011;37915;53.254;6.598;2023-06-19T13:46:25;9.73;;;6.28;;
51883;SDS011;37915;53.254;6.598;2023-06-19T13:48:51;12.60;;;6.32;;
51883;SDS011;37915;53.254;6.598;2023-06-19T13:51:17;8.52;;;5.40;;
51883;SDS011;37915;53.254;6.598;2023-06-19T13:53:44;7.30;;;4.90;;
51883;SDS011;37915;53.254;6.598;2023-06-19T13:56:10;8.05;;;5.53;;
51883;SDS011;37915;53.254;6.598;2023-06-19T13:58:36;7.90;;;5.30;;
51883;SDS011;37915;53.254;6.598;2023-06-19T14:01:02;8.35;;;5.28;;
51883;SDS011;37915;53.254;6.598;2023-06-19T14:03:27;10.07;;;5.43;;
51883;SDS011;37915;53.254;6.598;2023-06-19T14:05:53;9.02;;;5.43;;
51883;SDS011;37915;53.254;6.598;2023-06-19T14:08:19;9.75;;;5.70;;
51883;SDS011;37915;53.254;6.598;2023-06-19T14:10:45;7.60;;;5.47;;
51883;SDS011;37915;53.254;6.598;2023-06-19T14:13:10;7.78;;;5.38;;
51883;SDS011;37915;53.254;6.598;2023-06-19T14:15:36;6.90;;;4.78;;
51883;SDS011;37915;53.254;6.598;2023-06-19T14:18:01;9.07;;;5.60;;
51883;SDS011;37915;53.254;6.598;2023-06-19T14:20:27;9.52;;;6.18;;
51883;SDS011;37915;53.254;6.598;2023-06-19T14:22:53;8.52;;;5.55;;
51883;SDS011;37915;53.254;6.598;2023-06-19T14:25:18;8.20;;;5.53;;
51883;SDS011;37915;53.254;6.598;2023-06-19T14:27:44;8.50;;;5.75;;
51883;SDS011;37915;53.254;6.598;2023-06-19T14:30:10;8.00;;;5.35;;
51883;SDS011;37915;53.254;6.598;2023-06-19T14:32:37;9.77;;;6.07;;
51883;SDS011;37915;53.254;6.598;2023-06-19T14:35:03;8.80;;;6.15;;
51883;SDS011;37915;53.254;6.598;2023-06-19T14:37:29;8.50;;;6.10;;
51883;SDS011;37915;53.254;6.598;2023-06-19T14:39:55;9.05;;;6.10;;
51883;SDS011;37915;53.254;6.598;2023-06-19T14:42:21;9.27;;;5.50;;
51883;SDS011;37915;53.254;6.598;2023-06-19T14:44:47;8.25;;;5.20;;
51883;SDS011;37915;53.254;6.598;2023-06-19T14:47:12;9.52;;;6.47;;
51883;SDS011;37915;53.254;6.598;2023-06-19T14:49:38;10.48;;;6.22;;
51883;SDS011;37915;53.254;6.598;2023-06-19T14:52:04;11.15;;;6.45;;